createdAt,value
2022-12-16T00:00:11.768Z,5.02
2022-12-16T00:02:39.291Z,5.08
2022-12-16T00:05:07.073Z,5.02
2022-12-16T00:07:35.407Z,4.94
2022-12-16T00:10:02.973Z,4.92
2022-12-16T00:12:30.307Z,4.82
2022-12-16T00:14:57.664Z,4.87
2022-12-16T00:17:25.050Z,4.89
2022-12-16T00:19:52.423Z,4.97
2022-12-16T00:22:19.742Z,5.04
2022-12-16T00:24:47.175Z,5.26
2022-12-16T00:27:14.507Z,5.48
2022-12-16T00:29:41.825Z,5.48
2022-12-16T00:32:09.277Z,5.51
2022-12-16T00:34:36.585Z,5.46
2022-12-16T00:37:06.564Z,5.34
2022-12-16T00:39:33.940Z,5.40
2022-12-16T00:42:01.251Z,5.17
2022-12-16T00:44:28.620Z,5.37
2022-12-16T00:46:55.972Z,5.30
2022-12-16T00:49:23.285Z,5.43
2022-12-16T00:51:50.696Z,5.53
2022-12-16T00:54:17.997Z,5.36
2022-12-16T00:56:45.289Z,5.36
2022-12-16T00:59:12.638Z,5.28
2022-12-16T01:01:40.146Z,5.38
2022-12-16T01:04:07.573Z,5.33
2022-12-16T01:06:35.623Z,5.43
2022-12-16T01:09:03.120Z,5.35
2022-12-16T01:11:30.414Z,5.49
2022-12-16T01:13:59.289Z,5.56
2022-12-16T01:16:29.405Z,5.43
2022-12-16T01:18:56.857Z,5.38
2022-12-16T01:21:24.167Z,5.39
2022-12-16T01:23:52.055Z,5.39
2022-12-16T01:26:22.617Z,5.29
2022-12-16T01:28:50.009Z,5.27
2022-12-16T01:31:19.332Z,5.33
2022-12-16T01:33:46.897Z,5.39
2022-12-16T01:36:14.401Z,5.27
2022-12-16T01:38:44.252Z,5.28
2022-12-16T01:41:13.681Z,5.38
2022-12-16T01:43:42.759Z,5.40
2022-12-16T01:46:13.324Z,5.42
2022-12-16T01:49:06.906Z,5.45
2022-12-16T01:51:47.521Z,5.56
2022-12-16T01:57:13.791Z,5.48
2022-12-16T01:59:45.707Z,5.48
2022-12-16T02:02:14.149Z,5.47
2022-12-16T02:05:01.486Z,5.35
2022-12-16T02:07:28.835Z,5.38
2022-12-16T02:09:56.631Z,5.38
2022-12-16T02:15:37.716Z,5.41
2022-12-16T02:18:33.409Z,5.40
2022-12-16T02:21:44.053Z,5.41
2022-12-16T02:24:39.749Z,5.55
2022-12-16T02:30:47.581Z,5.51
2022-12-16T02:33:41.624Z,5.62
2022-12-16T02:36:22.032Z,5.56
2022-12-16T02:39:27.730Z,5.62
2022-12-16T02:42:07.336Z,5.78
2022-12-16T02:47:34.721Z,5.56
2022-12-16T02:50:02.969Z,5.55
2022-12-16T02:52:34.224Z,5.59
2022-12-16T02:55:09.143Z,5.86
2022-12-16T02:57:36.412Z,5.94
2022-12-16T03:00:17.110Z,5.81
2022-12-16T03:02:57.020Z,5.56
2022-12-16T03:05:37.594Z,5.57
2022-12-16T03:08:13.778Z,5.40
2022-12-16T03:10:46.664Z,5.39
2022-12-16T03:13:17.405Z,5.39
2022-12-16T03:16:07.979Z,5.50
2022-12-16T03:21:25.602Z,5.58
2022-12-16T03:24:02.835Z,5.46
2022-12-16T03:26:40.986Z,5.65
2022-12-16T03:29:14.309Z,5.64
2022-12-16T03:31:49.894Z,5.71
2022-12-16T03:37:24.401Z,5.62
2022-12-16T03:39:55.508Z,5.44
2022-12-16T03:42:24.113Z,5.35
2022-12-16T03:44:51.473Z,5.49
2022-12-16T03:47:23.583Z,5.58
2022-12-16T03:49:51.567Z,5.34
2022-12-16T03:55:03.807Z,5.40
2022-12-16T03:57:31.096Z,5.54
2022-12-16T03:59:58.397Z,5.56
2022-12-16T04:02:25.896Z,5.55
2022-12-16T04:04:53.391Z,5.51
2022-12-16T04:10:07.429Z,5.32
2022-12-16T04:12:53.590Z,5.35
2022-12-16T04:15:39.525Z,5.61
2022-12-16T04:18:35.660Z,5.35
2022-12-16T04:21:22.498Z,5.33
2022-12-16T04:27:17.134Z,5.31
2022-12-16T04:30:03.143Z,5.26
2022-12-16T04:32:50.933Z,5.15
2022-12-16T04:35:37.276Z,5.13
2022-12-16T04:38:23.172Z,5.17
2022-12-16T04:44:12.779Z,5.14
2022-12-16T04:47:18.077Z,5.09
2022-12-16T04:50:04.333Z,4.97
2022-12-16T04:52:50.274Z,5.01
2022-12-16T04:55:36.254Z,5.04
2022-12-16T05:01:36.590Z,5.02
2022-12-16T05:04:22.454Z,5.10
2022-12-16T05:07:08.209Z,5.08
2022-12-16T05:09:54.436Z,4.89
2022-12-16T05:12:40.391Z,4.94
2022-12-16T05:15:26.569Z,4.90
2022-12-16T05:18:12.291Z,4.81
2022-12-16T05:20:58.260Z,4.72
2022-12-16T05:23:44.254Z,4.73
2022-12-16T05:26:30.725Z,4.84
2022-12-16T05:29:16.682Z,4.77
2022-12-16T05:35:06.140Z,4.89
2022-12-16T05:37:52.102Z,4.89
2022-12-16T05:40:38.094Z,4.81
2022-12-16T05:43:24.051Z,4.74
2022-12-16T05:46:10.043Z,4.83
2022-12-16T05:48:55.798Z,4.86
2022-12-16T05:51:41.729Z,4.61
2022-12-16T05:54:27.805Z,4.75
2022-12-16T05:57:13.736Z,4.72
2022-12-16T05:59:59.726Z,4.74
2022-12-16T06:02:45.863Z,4.75
2022-12-16T06:05:33.119Z,4.74
2022-12-16T06:08:19.239Z,4.66
2022-12-16T06:11:05.214Z,4.61
2022-12-16T06:13:51.142Z,4.54
2022-12-16T06:16:37.094Z,4.46
2022-12-16T06:19:23.222Z,4.47
2022-12-16T06:22:09.216Z,4.51
2022-12-16T06:24:55.161Z,4.45
2022-12-16T06:27:41.373Z,4.52
2022-12-16T06:30:28.399Z,4.47
2022-12-16T06:33:14.367Z,4.49
2022-12-16T06:36:00.257Z,4.50
2022-12-16T06:38:46.336Z,4.45
2022-12-16T06:41:35.010Z,4.57
2022-12-16T06:44:31.691Z,4.55
2022-12-16T06:47:17.855Z,4.49
2022-12-16T06:50:03.672Z,4.55
2022-12-16T06:52:49.690Z,4.39
2022-12-16T06:55:35.662Z,4.30
2022-12-16T06:58:24.073Z,4.43
2022-12-16T07:01:10.400Z,4.36
2022-12-16T07:03:56.297Z,4.43
2022-12-16T07:06:42.476Z,4.38
2022-12-16T07:09:29.025Z,4.37
2022-12-16T07:12:15.053Z,4.47
2022-12-16T07:15:00.847Z,4.40
2022-12-16T07:17:46.864Z,4.38
2022-12-16T07:20:32.707Z,4.39
2022-12-16T07:23:20.039Z,4.63
2022-12-16T07:26:06.100Z,4.65
2022-12-16T07:28:51.926Z,4.53
2022-12-16T07:31:37.884Z,4.79
2022-12-16T07:34:23.610Z,4.58
2022-12-16T07:37:12.178Z,4.62
2022-12-16T07:40:14.599Z,4.59
2022-12-16T07:43:21.335Z,4.67
2022-12-16T07:46:07.220Z,4.66
2022-12-16T07:48:52.986Z,4.68
2022-12-16T07:51:38.578Z,4.78
2022-12-16T07:54:33.376Z,4.71
2022-12-16T07:57:19.043Z,4.66
2022-12-16T08:00:05.079Z,4.61
2022-12-16T08:02:58.315Z,4.68
2022-12-16T08:05:44.298Z,4.66
2022-12-16T08:08:30.330Z,4.68
2022-12-16T08:11:16.290Z,4.65
2022-12-16T08:14:02.467Z,4.56
2022-12-16T08:16:48.565Z,4.58
2022-12-16T08:19:34.644Z,4.60
2022-12-16T08:22:20.557Z,4.59
2022-12-16T08:25:06.539Z,4.48
2022-12-16T08:27:52.370Z,4.52
2022-12-16T08:30:38.668Z,4.52
2022-12-16T08:33:24.758Z,4.56
2022-12-16T08:36:11.335Z,4.48
2022-12-16T08:38:57.381Z,4.46
2022-12-16T08:41:44.022Z,4.51
2022-12-16T08:44:30.207Z,4.40
2022-12-16T08:47:16.026Z,4.45
2022-12-16T08:50:02.512Z,4.44
2022-12-16T08:52:50.391Z,4.49
2022-12-16T08:55:36.460Z,4.38
2022-12-16T08:58:22.387Z,4.46
2022-12-16T09:01:08.577Z,4.37
2022-12-16T09:03:55.378Z,4.56
2022-12-16T09:06:41.523Z,4.48
2022-12-16T09:09:28.669Z,4.57
2022-12-16T09:12:14.414Z,4.57
2022-12-16T09:15:00.433Z,4.62
2022-12-16T09:17:46.264Z,4.54
2022-12-16T09:20:32.240Z,4.48
2022-12-16T09:23:24.211Z,4.47
2022-12-16T09:26:10.308Z,4.52
2022-12-16T09:28:57.417Z,4.59
2022-12-16T09:31:43.930Z,4.65
2022-12-16T09:34:29.933Z,4.67
2022-12-16T09:37:15.834Z,4.63
2022-12-16T09:40:01.847Z,4.72
2022-12-16T09:43:09.718Z,4.81
2022-12-16T09:46:14.893Z,4.78
2022-12-16T09:49:23.407Z,4.83
2022-12-16T09:52:16.510Z,5.07
2022-12-16T09:55:06.323Z,5.05
2022-12-16T09:57:55.678Z,4.87
2022-12-16T10:00:45.664Z,4.99
2022-12-16T10:03:40.381Z,5.04
2022-12-16T10:07:00.614Z,5.04
2022-12-16T10:09:49.385Z,5.24
2022-12-16T10:12:38.335Z,5.31
2022-12-16T10:15:50.544Z,5.24
2022-12-16T10:19:03.013Z,5.40
2022-12-16T10:21:58.181Z,5.40
2022-12-16T10:25:27.044Z,5.53
2022-12-16T10:28:25.719Z,5.70
2022-12-16T10:31:12.130Z,5.63
2022-12-16T10:33:59.350Z,5.84
2022-12-16T10:36:46.149Z,5.73
2022-12-16T10:39:47.484Z,5.72
2022-12-16T10:42:47.099Z,5.81
2022-12-16T10:45:44.272Z,5.86
2022-12-16T10:48:32.011Z,5.81
2022-12-16T10:51:31.805Z,5.85
2022-12-16T10:54:31.703Z,5.83
2022-12-16T10:57:31.293Z,5.79
2022-12-16T11:00:37.391Z,5.90
2022-12-16T11:03:41.553Z,5.85
2022-12-16T11:06:29.362Z,5.82
2022-12-16T11:09:15.260Z,5.94
2022-12-16T11:12:01.067Z,5.95
2022-12-16T11:15:05.676Z,5.93
2022-12-16T11:17:52.765Z,5.82
2022-12-16T11:20:47.949Z,5.85
2022-12-16T11:23:34.385Z,5.94
2022-12-16T11:26:35.875Z,5.92
2022-12-16T11:29:35.966Z,5.90
2022-12-16T11:32:50.586Z,5.90
2022-12-16T11:35:41.216Z,5.83
2022-12-16T11:38:37.554Z,6.00
2022-12-16T11:41:24.623Z,6.01
2022-12-16T11:44:12.573Z,6.00
2022-12-16T11:46:58.475Z,5.87
2022-12-16T11:49:51.158Z,5.80
2022-12-16T11:52:39.568Z,5.75
2022-12-16T11:56:03.384Z,5.78
2022-12-16T11:58:43.144Z,5.76
2022-12-16T12:01:51.300Z,5.78
2022-12-16T12:04:37.856Z,5.77
2022-12-16T12:07:41.226Z,5.75
2022-12-16T12:11:02.779Z,5.78
2022-12-16T12:14:05.518Z,5.84
2022-12-16T12:17:05.507Z,5.87
2022-12-16T12:20:17.369Z,5.79
2022-12-16T12:23:04.792Z,5.69
2022-12-16T12:26:32.964Z,5.84
2022-12-16T12:29:34.049Z,5.87
2022-12-16T12:32:44.356Z,5.87
2022-12-16T12:35:36.407Z,5.97
2022-12-16T12:38:30.376Z,5.94
2022-12-16T12:41:19.784Z,5.93
2022-12-16T12:44:13.034Z,5.74
2022-12-16T12:47:11.462Z,5.79
2022-12-16T12:50:04.823Z,5.82
2022-12-16T12:53:22.152Z,5.96
2022-12-16T12:56:45.384Z,5.93
2022-12-16T13:00:03.149Z,5.88
2022-12-16T13:03:03.720Z,6.00
2022-12-16T13:05:52.710Z,5.93
2022-12-16T13:09:03.136Z,6.01
2022-12-16T13:11:49.019Z,5.82
2022-12-16T13:14:50.363Z,5.93
2022-12-16T13:17:39.689Z,5.97
2022-12-16T13:20:50.443Z,5.88
2022-12-16T13:23:46.608Z,5.86
2022-12-16T13:26:38.812Z,5.80
2022-12-16T13:29:33.964Z,5.91
2022-12-16T13:32:41.623Z,5.90
2022-12-16T13:35:27.465Z,5.87
2022-12-16T13:38:14.935Z,5.78
2022-12-16T13:41:13.212Z,5.78
2022-12-16T13:44:13.874Z,5.71
2022-12-16T13:47:12.138Z,5.73
2022-12-16T13:50:09.866Z,5.75
2022-12-16T13:53:15.298Z,5.77
2022-12-16T13:56:19.018Z,5.75
2022-12-16T13:59:08.253Z,5.77
2022-12-16T14:02:01.857Z,5.75
2022-12-16T14:05:16.329Z,5.71
2022-12-16T14:08:02.993Z,5.77
2022-12-16T14:10:53.282Z,5.82
2022-12-16T14:14:15.039Z,5.86
2022-12-16T14:17:11.017Z,5.73
2022-12-16T14:20:12.518Z,5.81
2022-12-16T14:23:55.267Z,5.76
2022-12-16T14:26:35.539Z,5.77
2022-12-16T14:29:30.339Z,5.78
2022-12-16T14:32:16.407Z,5.70
2022-12-16T14:35:02.252Z,5.75
2022-12-16T14:37:53.790Z,5.76
2022-12-16T14:40:44.422Z,5.77
2022-12-16T14:43:37.000Z,5.75
2022-12-16T14:46:23.545Z,5.74
2022-12-16T14:49:10.383Z,5.75
2022-12-16T14:52:07.062Z,5.72
2022-12-16T14:55:01.728Z,5.77
2022-12-16T14:57:50.653Z,5.78
2022-12-16T15:00:42.296Z,5.66
2022-12-16T15:03:44.543Z,5.62
2022-12-16T15:06:40.659Z,5.67
2022-12-16T15:09:36.188Z,5.65
2022-12-16T15:12:22.464Z,5.65
2022-12-16T15:15:10.300Z,5.61
2022-12-16T15:18:19.380Z,5.67
2022-12-16T15:21:11.242Z,5.66
2022-12-16T15:24:00.254Z,5.67
2022-12-16T15:26:49.728Z,5.64
2022-12-16T15:30:02.096Z,5.67
2022-12-16T15:32:53.576Z,5.66
2022-12-16T15:35:43.699Z,5.61
2022-12-16T15:38:51.465Z,5.60
2022-12-16T15:41:52.174Z,5.60
2022-12-16T15:44:46.267Z,5.59
2022-12-16T15:47:50.491Z,5.66
2022-12-16T15:50:47.493Z,5.68
2022-12-16T15:53:48.892Z,5.67
2022-12-16T15:56:41.981Z,5.67
2022-12-16T15:59:45.260Z,5.67
2022-12-16T16:02:44.166Z,5.68
2022-12-16T16:05:41.685Z,5.69
2022-12-16T16:08:30.826Z,5.72
2022-12-16T16:11:16.871Z,5.70
2022-12-16T16:14:08.287Z,5.71
2022-12-16T16:17:15.164Z,5.68
2022-12-16T16:20:03.826Z,5.65
2022-12-16T16:22:50.202Z,5.67
2022-12-16T16:25:35.915Z,5.67
2022-12-16T16:28:21.929Z,5.67
2022-12-16T16:31:07.897Z,5.67
2022-12-16T16:33:53.823Z,5.68
2022-12-16T16:36:39.478Z,5.71
2022-12-16T16:39:25.382Z,5.74
2022-12-16T16:42:11.196Z,5.74
2022-12-16T16:44:57.225Z,5.75
2022-12-16T16:47:43.288Z,5.75
2022-12-16T16:50:33.229Z,5.77
2022-12-16T16:53:19.187Z,5.71
2022-12-16T16:56:22.543Z,5.84
2022-12-16T16:59:08.124Z,5.82
2022-12-16T17:01:54.468Z,5.72
2022-12-16T17:04:40.618Z,5.69
2022-12-16T17:07:26.297Z,5.69
2022-12-16T17:10:12.292Z,5.76
2022-12-16T17:13:04.431Z,5.71
2022-12-16T17:15:56.200Z,5.65
2022-12-16T17:18:46.649Z,5.63
2022-12-16T17:21:33.789Z,5.66
2022-12-16T17:24:19.809Z,5.69
2022-12-16T17:27:08.496Z,5.68
2022-12-16T17:29:54.506Z,5.68
2022-12-16T17:32:40.926Z,5.80
2022-12-16T17:35:31.802Z,5.77
2022-12-16T17:38:17.776Z,5.74
2022-12-16T17:41:10.433Z,5.71
2022-12-16T17:43:56.367Z,5.85
2022-12-16T17:46:43.572Z,5.89
2022-12-16T17:49:29.601Z,5.96
2022-12-16T17:52:18.763Z,5.86
2022-12-16T17:55:04.697Z,5.84
2022-12-16T17:57:50.607Z,5.80
2022-12-16T18:00:36.445Z,5.80
2022-12-16T18:03:23.314Z,5.74
2022-12-16T18:06:15.300Z,5.83
2022-12-16T18:09:01.165Z,5.72
2022-12-16T18:11:47.068Z,5.66
2022-12-16T18:14:32.982Z,5.64
2022-12-16T18:17:18.704Z,5.68
2022-12-16T18:20:05.981Z,5.67
2022-12-16T18:22:51.710Z,5.64
2022-12-16T18:25:37.701Z,5.67
2022-12-16T18:28:23.744Z,5.70
2022-12-16T18:31:09.786Z,5.67
2022-12-16T18:33:55.933Z,5.63
2022-12-16T18:36:41.888Z,5.60
2022-12-16T18:39:30.853Z,5.69
2022-12-16T18:42:16.639Z,5.72
2022-12-16T18:45:02.682Z,5.86
2022-12-16T18:48:09.708Z,5.82
2022-12-16T18:50:56.245Z,5.73
2022-12-16T18:53:42.237Z,5.68
2022-12-16T18:56:28.596Z,5.70
2022-12-16T18:59:14.615Z,5.75
2022-12-16T19:02:00.456Z,5.80
2022-12-16T19:04:46.396Z,5.81
2022-12-16T19:07:33.978Z,5.78
2022-12-16T19:10:20.180Z,5.80
2022-12-16T19:13:06.358Z,5.78
2022-12-16T19:15:52.778Z,5.79
2022-12-16T19:18:38.710Z,5.82
2022-12-16T19:21:24.725Z,5.84
2022-12-16T19:24:10.866Z,5.88
2022-12-16T19:26:56.916Z,5.82
2022-12-16T19:29:43.434Z,5.82
2022-12-16T19:32:29.494Z,5.89
2022-12-16T19:35:15.869Z,5.85
2022-12-16T19:38:01.589Z,5.85
2022-12-16T19:40:47.596Z,5.85
2022-12-16T19:43:34.976Z,5.85
2022-12-16T19:46:21.161Z,5.80
2022-12-16T19:49:07.538Z,5.76
2022-12-16T19:51:56.257Z,5.77
2022-12-16T19:54:42.456Z,5.78
2022-12-16T19:57:31.377Z,5.72
2022-12-16T20:00:19.459Z,5.76
2022-12-16T20:03:05.820Z,5.75
2022-12-16T20:05:51.821Z,5.77
2022-12-16T20:08:37.953Z,5.74
2022-12-16T20:11:28.164Z,5.76
2022-12-16T20:14:16.878Z,5.77
2022-12-16T20:17:02.509Z,5.77
2022-12-16T20:19:48.662Z,5.74
2022-12-16T20:22:35.081Z,5.86
2022-12-16T20:25:20.880Z,5.82
2022-12-16T20:28:06.924Z,5.74
2022-12-16T20:30:53.602Z,5.73
2022-12-16T20:33:42.680Z,5.78
2022-12-16T20:36:29.058Z,5.79
2022-12-16T20:39:14.985Z,5.76
2022-12-16T20:42:00.825Z,5.79
2022-12-16T20:44:47.086Z,5.84
2022-12-16T20:47:36.314Z,5.76
2022-12-16T20:50:22.865Z,5.69
2022-12-16T20:53:08.902Z,5.70
2022-12-16T20:55:56.108Z,5.68
2022-12-16T20:58:56.151Z,5.67
2022-12-16T21:04:48.210Z,5.73
2022-12-16T21:07:36.978Z,5.70
2022-12-16T21:10:23.362Z,5.72
2022-12-16T21:13:09.453Z,5.76
2022-12-16T21:15:58.932Z,5.70
2022-12-16T21:18:45.381Z,5.79
2022-12-16T21:21:31.124Z,5.76
2022-12-16T21:24:17.078Z,5.70
2022-12-16T21:27:03.246Z,5.72
2022-12-16T21:29:49.279Z,5.75
2022-12-16T21:32:46.213Z,5.74
2022-12-16T21:35:32.359Z,5.72
2022-12-16T21:38:20.178Z,5.74
2022-12-16T21:41:13.190Z,5.76
2022-12-16T21:43:59.549Z,5.76
2022-12-16T21:46:45.713Z,5.76
2022-12-16T21:49:31.764Z,5.78
2022-12-16T21:52:19.117Z,5.79
2022-12-16T21:55:05.077Z,5.79
2022-12-16T21:57:51.038Z,5.77
2022-12-16T22:00:43.731Z,5.75
2022-12-16T22:03:32.572Z,5.72
2022-12-16T22:06:18.398Z,5.71
2022-12-16T22:09:04.521Z,5.69
2022-12-16T22:11:50.647Z,5.72
2022-12-16T22:14:37.654Z,5.70
2022-12-16T22:17:24.489Z,5.71
2022-12-16T22:20:11.194Z,5.72
2022-12-16T22:22:57.472Z,5.76
2022-12-16T22:25:43.406Z,5.80
2022-12-16T22:28:29.384Z,5.86
2022-12-16T22:31:16.411Z,5.89
2022-12-16T22:34:02.693Z,5.91
2022-12-16T22:36:48.394Z,5.85
2022-12-16T22:39:34.373Z,5.81
2022-12-16T22:42:20.480Z,5.79
2022-12-16T22:45:06.177Z,5.81
2022-12-16T22:47:52.139Z,5.81
2022-12-16T22:50:38.148Z,5.75
2022-12-16T22:53:24.186Z,5.77
2022-12-16T22:56:14.363Z,5.74
2022-12-16T22:59:00.201Z,5.71
2022-12-16T23:01:46.286Z,5.71
2022-12-16T23:04:34.050Z,5.67
2022-12-16T23:07:20.083Z,5.62
2022-12-16T23:10:05.801Z,5.67
2022-12-16T23:12:52.392Z,5.67
2022-12-16T23:15:39.128Z,5.69
2022-12-16T23:18:25.361Z,5.69
2022-12-16T23:21:11.340Z,5.66
2022-12-16T23:23:57.172Z,5.66
2022-12-16T23:26:43.369Z,5.68
2022-12-16T23:29:29.345Z,5.65
2022-12-16T23:32:15.317Z,5.64
2022-12-16T23:35:01.213Z,5.71
2022-12-16T23:37:47.283Z,5.71
2022-12-16T23:40:33.391Z,5.71
2022-12-16T23:43:19.532Z,5.71
2022-12-16T23:46:05.484Z,5.71
2022-12-16T23:48:52.433Z,5.68
2022-12-16T23:51:39.273Z,5.75
2022-12-16T23:54:25.265Z,5.76
2022-12-16T23:57:11.308Z,5.74
2022-12-16T23:59:57.290Z,5.74
